createdAt,value
2019-05-19T00:00:29.620Z,91.6
2019-05-19T00:01:43.205Z,92.1
2019-05-19T00:02:56.853Z,92.7
2019-05-19T00:04:08.468Z,93.8
2019-05-19T00:05:19.911Z,94.6
2019-05-19T00:06:31.492Z,95.2
2019-05-19T00:07:43.089Z,95.8
2019-05-19T00:08:53.743Z,97.5
2019-05-19T00:10:05.400Z,97.1
2019-05-19T00:11:14.896Z,99.9
2019-05-19T00:12:24.434Z,99.9
2019-05-19T00:13:33.993Z,99.9
2019-05-19T00:14:43.661Z,99.9
2019-05-19T00:15:53.096Z,99.9
2019-05-19T00:17:02.655Z,99.7
2019-05-19T00:18:12.207Z,99.9
2019-05-19T00:19:27.247Z,96.9
2019-05-19T00:20:35.315Z,97.2
2019-05-19T00:21:46.859Z,96.2
2019-05-19T00:22:58.408Z,95.4
2019-05-19T00:24:09.976Z,95.7
2019-05-19T00:25:21.622Z,95.6
2019-05-19T00:26:33.064Z,95.2
2019-05-19T00:27:44.637Z,95
2019-05-19T00:28:56.154Z,94.7
2019-05-19T00:30:05.714Z,94.7
2019-05-19T00:31:15.291Z,98.2
2019-05-19T00:32:24.809Z,98.5
2019-05-19T00:33:34.437Z,99
2019-05-19T00:34:43.918Z,99.4
2019-05-19T00:35:53.488Z,99.4
2019-05-19T00:37:03.004Z,99.3
2019-05-19T00:38:12.568Z,99.7
2019-05-19T00:39:22.191Z,99.9
2019-05-19T00:40:31.627Z,99.9
2019-05-19T00:41:41.270Z,99.9
2019-05-19T00:42:50.723Z,99.9
2019-05-19T00:44:00.283Z,99.9
2019-05-19T00:45:09.826Z,99.9
2019-05-19T00:46:19.355Z,99.9
2019-05-19T00:47:28.908Z,99.9
2019-05-19T00:48:38.512Z,99.9
2019-05-19T00:49:48.001Z,99.9
2019-05-19T00:50:57.515Z,99.9
2019-05-19T00:52:07.055Z,99.9
2019-05-19T00:53:16.599Z,99.9
2019-05-19T00:54:26.160Z,99.4
2019-05-19T00:55:35.706Z,99.6
2019-05-19T00:56:45.228Z,99.6
2019-05-19T00:57:54.766Z,99.8
2019-05-19T00:59:04.306Z,99.8
2019-05-19T01:00:13.831Z,99.6
2019-05-19T01:01:23.381Z,99.2
2019-05-19T01:02:32.905Z,99.1
2019-05-19T01:03:42.464Z,99.6
2019-05-19T01:04:51.994Z,99.5
2019-05-19T01:06:01.595Z,99.8
2019-05-19T01:07:11.085Z,99.7
2019-05-19T01:08:20.622Z,99.9
2019-05-19T01:09:30.140Z,99.6
2019-05-19T01:10:40.852Z,94.3
2019-05-19T01:11:50.395Z,94.3
2019-05-19T01:12:59.938Z,94.3
2019-05-19T01:14:09.497Z,94.5
2019-05-19T01:15:19.042Z,94.6
2019-05-19T01:16:28.577Z,94.8
2019-05-19T01:17:38.144Z,94.7
2019-05-19T01:18:47.632Z,94.5
2019-05-19T01:19:57.164Z,94.6
2019-05-19T01:21:06.797Z,94.5
2019-05-19T01:22:16.267Z,94.6
2019-05-19T01:23:25.793Z,94.4
2019-05-19T01:24:35.365Z,93.9
2019-05-19T01:25:44.864Z,94.6
2019-05-19T01:26:54.406Z,94.5
2019-05-19T01:28:03.950Z,94.4
2019-05-19T01:29:13.482Z,94.2
2019-05-19T01:31:32.614Z,93.6
2019-05-19T01:32:42.110Z,93.7
2019-05-19T01:33:51.724Z,93.7
2019-05-19T01:35:01.225Z,94
2019-05-19T01:36:10.708Z,93.7
2019-05-19T01:37:20.238Z,94
2019-05-19T01:38:29.802Z,94.1
2019-05-19T01:39:39.323Z,93.9
2019-05-19T01:40:48.867Z,94
2019-05-19T01:41:58.399Z,93.8
2019-05-19T01:43:07.952Z,93.4
2019-05-19T01:44:17.455Z,93.3
2019-05-19T01:45:27.064Z,93.2
2019-05-19T01:46:36.582Z,93.6
2019-05-19T01:47:46.056Z,93.6
2019-05-19T01:48:55.631Z,93.2
2019-05-19T01:50:18.395Z,93.6
2019-05-19T01:51:14.660Z,93.6
2019-05-19T01:52:24.222Z,93.7
2019-05-19T01:53:33.766Z,93.9
2019-05-19T01:54:43.262Z,94.3
2019-05-19T01:55:52.851Z,93.9
2019-05-19T01:57:02.337Z,93.6
2019-05-19T01:58:11.898Z,93.7
2019-05-19T01:59:21.390Z,93.7
2019-05-19T02:00:30.921Z,93.5
2019-05-19T02:01:40.462Z,93.4
2019-05-19T02:02:49.979Z,93.9
2019-05-19T02:03:59.518Z,93.7
2019-05-19T02:05:09.039Z,93.9
2019-05-19T02:06:18.571Z,93.7
2019-05-19T02:07:28.141Z,93.8
2019-05-19T02:08:37.733Z,94
2019-05-19T02:09:47.201Z,94.4
2019-05-19T02:10:56.738Z,93.7
2019-05-19T02:12:06.235Z,93.2
2019-05-19T02:13:15.745Z,93.3
2019-05-19T02:14:25.260Z,93.4
2019-05-19T02:15:34.799Z,93.2
2019-05-19T02:16:44.347Z,93.2
2019-05-19T02:17:53.852Z,93.2
2019-05-19T02:19:03.421Z,93.5
2019-05-19T02:20:12.914Z,93.8
2019-05-19T02:21:22.437Z,93.1
2019-05-19T02:22:31.958Z,93.5
2019-05-19T02:23:41.505Z,93.2
2019-05-19T02:24:51.009Z,93.5
2019-05-19T02:26:00.533Z,93.1
2019-05-19T02:27:10.064Z,93.1
2019-05-19T02:28:19.593Z,93.4
2019-05-19T02:29:29.128Z,93.4
2019-05-19T02:30:38.670Z,93.4
2019-05-19T02:31:48.220Z,93.8
2019-05-19T02:32:57.697Z,94.4
2019-05-19T02:34:07.244Z,94.4
2019-05-19T02:35:16.748Z,94.1
2019-05-19T02:36:26.283Z,93.9
2019-05-19T02:37:35.814Z,94.1
2019-05-19T02:38:45.331Z,94.6
2019-05-19T02:39:54.852Z,94.6
2019-05-19T02:41:04.383Z,94.5
2019-05-19T02:42:14.035Z,95.3
2019-05-19T02:43:23.412Z,95.6
2019-05-19T02:44:32.943Z,95.7
2019-05-19T02:45:42.461Z,95.7
2019-05-19T02:46:52.043Z,96
2019-05-19T02:48:01.497Z,96.2
2019-05-19T02:49:11.031Z,95.9
2019-05-19T02:50:20.533Z,95.8
2019-05-19T02:51:30.071Z,95.7
2019-05-19T02:52:39.597Z,95.6
2019-05-19T02:53:49.113Z,95.7
2019-05-19T02:54:58.625Z,96
2019-05-19T02:56:08.238Z,95.9
2019-05-19T02:57:17.657Z,95.7
2019-05-19T02:58:27.141Z,95.6
2019-05-19T02:59:36.702Z,95.6
2019-05-19T03:00:46.176Z,95.7
2019-05-19T03:01:55.687Z,95.8
2019-05-19T03:03:05.208Z,95.9
2019-05-19T03:04:14.732Z,96.1
2019-05-19T03:05:24.269Z,96.3
2019-05-19T03:06:33.739Z,96.7
2019-05-19T03:07:43.259Z,96.4
2019-05-19T03:08:52.854Z,96
2019-05-19T03:10:02.296Z,96.2
2019-05-19T03:11:11.819Z,96.1
2019-05-19T03:12:21.324Z,96.5
2019-05-19T03:13:30.832Z,96.8
2019-05-19T03:14:40.362Z,97
2019-05-19T03:15:50.040Z,97.2
2019-05-19T03:16:59.358Z,97.2
2019-05-19T03:18:08.864Z,97.9
2019-05-19T03:19:18.430Z,99
2019-05-19T03:20:27.908Z,99.5
2019-05-19T03:21:37.405Z,99.9
2019-05-19T03:22:46.898Z,99.9
2019-05-19T03:23:56.448Z,99.9
2019-05-19T03:25:05.927Z,99.9
2019-05-19T03:26:15.477Z,99.9
2019-05-19T03:27:24.970Z,99.6
2019-05-19T03:28:34.456Z,98.6
2019-05-19T03:29:43.960Z,96.3
2019-05-19T03:30:53.520Z,95.6
2019-05-19T03:32:03.012Z,95.5
2019-05-19T03:33:12.720Z,94.5
2019-05-19T03:34:21.996Z,93.9
2019-05-19T03:35:31.511Z,93.3
2019-05-19T03:36:41.033Z,93.2
2019-05-19T03:37:50.533Z,93.1
2019-05-19T03:39:00.049Z,93.6
2019-05-19T03:40:09.561Z,93.9
2019-05-19T03:41:19.100Z,93.1
2019-05-19T03:42:28.616Z,92.9
2019-05-19T03:43:38.164Z,93
2019-05-19T03:44:47.650Z,93
2019-05-19T03:45:57.170Z,92.8
2019-05-19T03:47:06.789Z,92.1
2019-05-19T03:48:16.231Z,91.6
2019-05-19T03:49:25.747Z,91.5
2019-05-19T03:50:35.289Z,91.6
2019-05-19T03:51:44.815Z,91.3
2019-05-19T03:52:54.397Z,90.5
2019-05-19T03:54:03.904Z,90.2
2019-05-19T03:55:13.466Z,91
2019-05-19T03:56:22.962Z,90.8
2019-05-19T03:57:32.512Z,90.9
2019-05-19T03:58:42.042Z,91.7
2019-05-19T03:59:51.682Z,92.2
2019-05-19T04:01:01.287Z,91.8
2019-05-19T04:02:10.682Z,92
2019-05-19T04:03:20.209Z,92.2
2019-05-19T04:04:29.761Z,91.6
2019-05-19T04:05:39.340Z,91.4
2019-05-19T04:06:48.885Z,91.5
2019-05-19T04:07:58.443Z,91.4
2019-05-19T04:09:08.032Z,91.3
2019-05-19T04:10:17.547Z,91.3
2019-05-19T04:11:27.064Z,90.9
2019-05-19T04:12:36.722Z,90.9
2019-05-19T04:13:46.183Z,91.3
2019-05-19T04:14:55.766Z,90.3
2019-05-19T04:16:05.289Z,88.7
2019-05-19T04:17:14.854Z,86.3
2019-05-19T04:18:24.490Z,84.6
2019-05-19T04:19:33.964Z,86.1
2019-05-19T04:20:43.520Z,88.3
2019-05-19T04:21:53.167Z,88.1
2019-05-19T04:23:04.663Z,87
2019-05-19T04:25:27.841Z,86.9
2019-05-19T04:26:39.390Z,86.1
2019-05-19T04:27:50.996Z,86.4
2019-05-19T04:29:02.619Z,86.7
2019-05-19T04:30:14.131Z,86.1
2019-05-19T04:31:25.736Z,88.3
2019-05-19T04:32:37.313Z,87.8
2019-05-19T04:33:48.919Z,87.1
2019-05-19T04:35:00.503Z,84.9
2019-05-19T04:36:12.173Z,85.8
2019-05-19T04:37:23.740Z,85.4
2019-05-19T04:38:35.299Z,84.1
2019-05-19T04:39:46.924Z,84.5
2019-05-19T04:40:58.550Z,84.9
2019-05-19T04:42:12.161Z,81.1
2019-05-19T04:43:25.858Z,79.7
2019-05-19T04:44:39.397Z,83.4
2019-05-19T04:45:53.010Z,83.6
2019-05-19T04:47:04.668Z,84
2019-05-19T04:48:16.277Z,85.1
2019-05-19T04:49:27.907Z,86.3
2019-05-19T04:50:39.562Z,86.2
2019-05-19T04:52:07.488Z,83.6
2019-05-19T04:53:06.805Z,81.7
2019-05-19T04:54:20.440Z,81.9
2019-05-19T04:55:32.093Z,83.7
2019-05-19T04:56:45.890Z,84.5
2019-05-19T04:57:59.415Z,83
2019-05-19T04:59:13.030Z,80.9
2019-05-19T05:00:26.702Z,81.6
2019-05-19T05:01:40.355Z,80.8
2019-05-19T05:02:54.063Z,80.6
2019-05-19T05:04:07.671Z,80.9
2019-05-19T05:05:21.309Z,82.1
2019-05-19T05:06:34.971Z,81.9
2019-05-19T05:07:46.626Z,81.4
2019-05-19T05:09:00.296Z,81.5
2019-05-19T05:10:14.076Z,80.8
2019-05-19T05:11:27.600Z,79.9
2019-05-19T05:12:41.291Z,80.1
2019-05-19T05:13:54.933Z,78.8
2019-05-19T05:15:08.641Z,79.4
2019-05-19T05:16:22.342Z,78.5
2019-05-19T05:17:35.962Z,78.6
2019-05-19T05:18:49.670Z,75.8
2019-05-19T05:20:03.331Z,77.5
2019-05-19T05:21:17.018Z,76.4
2019-05-19T05:22:30.724Z,77.6
2019-05-19T05:23:44.414Z,78.4
2019-05-19T05:24:58.126Z,78.1
2019-05-19T05:26:11.898Z,79.2
2019-05-19T05:27:25.505Z,78.8
2019-05-19T05:29:52.891Z,78.2
2019-05-19T05:31:06.737Z,78.8
2019-05-19T05:32:20.354Z,78
2019-05-19T05:33:34.095Z,77.5
2019-05-19T05:34:47.801Z,77.5
2019-05-19T05:36:01.414Z,78.7
2019-05-19T05:37:15.141Z,78.9
2019-05-19T05:38:28.832Z,79.7
2019-05-19T05:39:42.530Z,80.2
2019-05-19T05:40:56.232Z,80.1
2019-05-19T05:42:09.921Z,79.8
2019-05-19T05:43:23.628Z,80.9
2019-05-19T05:44:35.321Z,82.6
2019-05-19T05:45:47.652Z,81.7
2019-05-19T05:46:58.777Z,82.2
2019-05-19T05:48:12.394Z,81.1
2019-05-19T05:49:26.109Z,80.4
2019-05-19T05:50:39.937Z,78.9
2019-05-19T05:51:53.460Z,80.3
2019-05-19T05:53:07.158Z,79.3
2019-05-19T05:54:20.882Z,79.3
2019-05-19T05:55:36.654Z,76.4
2019-05-19T05:56:52.274Z,74.5
2019-05-19T05:58:07.988Z,74.9
2019-05-19T05:59:23.756Z,75
2019-05-19T06:00:39.452Z,74.9
2019-05-19T06:01:53.179Z,75.3
2019-05-19T06:03:08.923Z,76.3
2019-05-19T06:04:24.756Z,74.8
2019-05-19T06:05:38.376Z,76.4
2019-05-19T06:06:54.126Z,77.3
2019-05-19T06:08:07.892Z,75.1
2019-05-19T06:09:25.613Z,75.7
2019-05-19T06:10:41.346Z,72.1
2019-05-19T06:11:57.157Z,75.3
2019-05-19T06:13:14.854Z,74.7
2019-05-19T06:14:32.636Z,73.7
2019-05-19T11:08:34.322Z,55.7
2019-05-19T11:12:18.398Z,54.9
2019-05-19T11:13:44.478Z,56.9
2019-05-19T11:15:14.494Z,56.7
2019-05-19T11:16:50.669Z,56.7
2019-05-19T11:18:34.749Z,55.7
2019-05-19T11:20:08.721Z,56.5
2019-05-19T11:22:50.808Z,55.7
2019-05-19T11:24:18.971Z,56.6
2019-05-19T11:26:02.994Z,56.7
2019-05-19T11:27:31.016Z,57.4
2019-05-19T11:29:01.022Z,57.5
2019-05-19T11:30:29.017Z,59.3
2019-05-19T11:32:03.159Z,59.2
2019-05-19T11:33:41.032Z,58.1
2019-05-19T11:35:17.041Z,55.8
2019-05-19T11:36:49.123Z,56.4
2019-05-19T11:38:29.061Z,56.6
2019-05-19T11:40:15.145Z,56
2019-05-19T11:42:05.150Z,54.2
2019-05-19T11:43:59.187Z,53.9
2019-05-19T11:45:35.232Z,53.1
2019-05-19T11:47:15.329Z,55.1
2019-05-19T11:49:05.361Z,55.5
2019-05-19T11:51:14.565Z,53.1
2019-05-19T11:52:52.708Z,54.2
2019-05-19T11:54:34.705Z,55.3
2019-05-19T11:59:04.921Z,50.9
2019-05-19T12:01:39.042Z,50.1
2019-05-19T12:03:04.258Z,55.1
2019-05-19T12:04:42.336Z,54.5
2019-05-19T12:06:13.513Z,55.1
2019-05-19T12:07:45.611Z,55.1
2019-05-19T12:09:22.863Z,55
2019-05-19T12:13:24.990Z,50.9
2019-05-19T12:15:05.018Z,52.9
2019-05-19T12:17:25.111Z,51.9
2019-05-19T12:19:09.250Z,52
2019-05-19T12:20:49.285Z,51.5
2019-05-19T12:22:31.362Z,53.3
2019-05-19T12:24:29.518Z,52.9
2019-05-19T12:26:35.048Z,51.3
2019-05-19T12:28:05.601Z,53.1
2019-05-19T12:30:11.690Z,53.2
2019-05-19T12:31:39.758Z,55.1
2019-05-19T12:33:09.868Z,53.6
2019-05-19T12:34:47.911Z,55.2
2019-05-19T12:36:21.959Z,53.9
2019-05-19T12:37:58.124Z,54.1
2019-05-19T12:39:38.118Z,55.1
2019-05-19T12:41:10.180Z,55.3
2019-05-19T12:42:56.230Z,55.8
2019-05-19T12:49:28.577Z,49.6
2019-05-19T12:51:54.646Z,50.8
2019-05-19T12:54:22.850Z,51.9
2019-05-19T12:55:50.923Z,54.4
2019-05-19T12:57:21.528Z,56
2019-05-19T12:58:47.133Z,55.1
2019-05-19T13:00:19.230Z,56.6
2019-05-19T13:01:51.281Z,57.2
2019-05-19T13:05:05.973Z,53.3
2019-05-19T13:06:25.534Z,55.8
2019-05-19T13:08:21.670Z,56
2019-05-19T13:09:59.730Z,54.9
2019-05-19T13:11:27.851Z,56.8
2019-05-19T13:12:59.950Z,57.4
2019-05-19T13:14:32.002Z,57.3
2019-05-19T13:16:00.062Z,59.3
2019-05-19T13:17:28.099Z,58.6
2019-05-19T13:18:58.509Z,59.2
2019-05-19T13:20:28.162Z,58.6
2019-05-19T13:21:56.248Z,59.4
2019-05-19T13:23:28.229Z,59.1
2019-05-19T13:24:56.245Z,56.8
2019-05-19T13:26:24.350Z,56.7
2019-05-19T13:27:50.287Z,58.3
2019-05-19T13:29:18.352Z,59
2019-05-19T13:30:44.324Z,58.7
2019-05-19T13:32:10.349Z,59.2
2019-05-19T13:33:38.310Z,59.8
2019-05-19T13:35:06.294Z,59.5
2019-05-19T13:36:34.254Z,60.4
2019-05-19T13:38:02.233Z,60.6
2019-05-19T13:39:32.191Z,61.2
2019-05-19T13:40:58.133Z,59.9
2019-05-19T13:42:24.105Z,57.8
2019-05-19T13:43:52.193Z,58
2019-05-19T13:45:20.047Z,57.6
2019-05-19T13:46:46.095Z,57.8
2019-05-19T13:48:12.057Z,60
2019-05-19T13:49:34.030Z,64
2019-05-19T13:50:56.018Z,64.6
2019-05-19T13:52:18.018Z,66
2019-05-19T13:53:37.938Z,66.8
2019-05-19T13:54:59.956Z,67
2019-05-19T13:56:25.866Z,68.5
2019-05-19T13:57:45.738Z,66.8
2019-05-19T13:59:05.642Z,67.9
2019-05-19T14:00:25.575Z,67.3
2019-05-19T14:01:47.520Z,67.5
2019-05-19T14:03:09.590Z,65.9
2019-05-19T14:04:31.720Z,67.4
2019-05-19T14:05:51.459Z,67.4
2019-05-19T14:07:13.412Z,66.6
2019-05-19T14:08:37.360Z,68
2019-05-19T14:09:59.322Z,67.6
2019-05-19T14:11:19.350Z,67.5
2019-05-19T14:12:39.226Z,67.6
2019-05-19T14:13:59.169Z,68.3
2019-05-19T14:15:21.124Z,67.7
2019-05-19T14:16:43.058Z,67.8
2019-05-19T14:18:02.998Z,68.3
2019-05-19T14:19:22.966Z,68.7
2019-05-19T14:20:42.834Z,69.2
2019-05-19T14:22:02.745Z,69.4
2019-05-19T14:23:26.625Z,70.4
2019-05-19T14:24:44.524Z,70.2
2019-05-19T14:26:04.454Z,71.7
2019-05-19T14:27:31.029Z,71.6
2019-05-19T14:28:44.216Z,71.1
2019-05-19T14:30:04.062Z,70.5
2019-05-19T14:32:43.706Z,71
2019-05-19T14:34:03.543Z,70.9
2019-05-19T14:35:21.376Z,71.1
2019-05-19T14:36:41.266Z,70.3
2019-05-19T14:38:01.040Z,70.1
2019-05-19T14:39:20.887Z,71.3
2019-05-19T14:40:40.739Z,71.3
2019-05-19T14:42:00.551Z,71.1
2019-05-19T14:43:20.390Z,70.7
2019-05-19T14:44:36.330Z,69.3
2019-05-19T14:45:52.031Z,69.3
2019-05-19T14:47:07.860Z,69.4
2019-05-19T14:48:23.734Z,68.4
2019-05-19T14:49:39.527Z,68.7
2019-05-19T14:50:55.363Z,68.6
2019-05-19T14:52:11.199Z,69
2019-05-19T14:53:27.066Z,68.7
2019-05-19T14:54:44.926Z,69.2
2019-05-19T14:56:02.877Z,67.8
2019-05-19T14:57:20.935Z,67.7
2019-05-19T14:58:36.888Z,68.3
2019-05-19T14:59:54.915Z,69.6
2019-05-19T15:01:12.904Z,68.7
2019-05-19T15:02:30.999Z,69.1
2019-05-19T15:03:49.016Z,67.1
2019-05-19T15:05:07.125Z,67.4
2019-05-19T15:06:25.191Z,67.7
2019-05-19T15:08:58.756Z,69.5
2019-05-19T15:10:16.610Z,69.7
2019-05-19T15:11:34.643Z,69.7
2019-05-19T15:12:52.810Z,69.1
2019-05-19T15:14:08.944Z,69.6
2019-05-19T15:15:25.012Z,72.3
2019-05-19T15:16:41.150Z,73.7
2019-05-19T15:17:57.278Z,78.4
2019-05-19T15:19:13.377Z,73.3
2019-05-19T15:20:29.479Z,74.6
2019-05-19T15:21:45.556Z,75.5
2019-05-19T15:23:01.581Z,73.8
2019-05-19T15:24:17.602Z,74.1
2019-05-19T15:25:33.556Z,74.8
2019-05-19T15:26:49.485Z,73.1
2019-05-19T15:28:05.786Z,75.7
2019-05-19T15:29:21.322Z,75.6
2019-05-19T15:30:35.208Z,75.2
2019-05-19T15:31:51.060Z,76
2019-05-19T15:33:04.914Z,74.4
2019-05-19T15:34:20.865Z,75.7
2019-05-19T15:35:34.662Z,75.6
2019-05-19T15:36:48.451Z,75.7
2019-05-19T15:38:02.341Z,76
2019-05-19T15:39:16.119Z,77.1
2019-05-19T15:40:29.921Z,77
2019-05-19T15:41:43.762Z,77.4
2019-05-19T15:42:57.554Z,78.3
2019-05-19T15:44:13.388Z,78.4
2019-05-19T15:45:31.182Z,78.6
2019-05-19T15:46:48.998Z,78.6
2019-05-19T15:48:04.826Z,78.4
2019-05-19T15:49:20.592Z,77.5
2019-05-19T15:50:36.409Z,78.5
2019-05-19T15:53:07.990Z,77.5
2019-05-19T15:54:23.942Z,77.7
2019-05-19T15:55:39.564Z,77.5
2019-05-19T15:56:55.375Z,77.4
2019-05-19T15:58:17.190Z,77.8
2019-05-19T15:59:26.990Z,78.7
2019-05-19T16:00:42.759Z,78.2
2019-05-19T16:01:58.600Z,78.5
2019-05-19T16:03:14.386Z,77.4
2019-05-19T16:04:30.163Z,77.6
2019-05-19T16:05:45.972Z,77.9
2019-05-19T16:07:01.864Z,76.8
2019-05-19T16:08:17.627Z,77.5
2019-05-19T16:09:33.377Z,76.8
2019-05-19T16:10:49.162Z,76.9
2019-05-19T16:12:05.045Z,77.3
2019-05-19T16:13:22.253Z,77.1
2019-05-19T16:15:52.392Z,76.8
2019-05-19T16:17:08.230Z,77.7
2019-05-19T16:18:23.947Z,77.3
2019-05-19T16:19:39.736Z,77.3
2019-05-19T16:20:55.528Z,76.7
2019-05-19T16:22:11.320Z,75.9
2019-05-19T16:23:27.109Z,76
2019-05-19T16:25:58.703Z,76
2019-05-19T16:27:14.499Z,76.2
2019-05-19T16:28:31.297Z,75.6
2019-05-19T16:29:46.120Z,75.6
2019-05-19T16:31:01.950Z,75.5
2019-05-19T16:32:17.674Z,75.6
2019-05-19T16:33:33.469Z,74.9
2019-05-19T16:34:49.252Z,75
2019-05-19T16:36:08.153Z,74.9
2019-05-19T16:37:20.867Z,74.8
2019-05-19T16:38:36.690Z,75.3
2019-05-19T16:39:52.429Z,74.9
2019-05-19T16:41:06.254Z,75.5
2019-05-19T16:42:22.020Z,76.6
2019-05-19T16:43:37.837Z,76.1
2019-05-19T16:44:51.668Z,76.1
2019-05-19T16:46:07.405Z,76.8
2019-05-19T16:47:23.193Z,76.7
2019-05-19T16:48:37.029Z,76.7
2019-05-19T16:49:52.831Z,77.4
2019-05-19T16:51:06.674Z,77.3
2019-05-19T16:52:20.379Z,78.3
2019-05-19T16:53:36.269Z,78.3
2019-05-19T16:54:49.981Z,78
2019-05-19T16:56:03.718Z,78.5
2019-05-19T16:57:17.487Z,78.7
2019-05-19T16:58:45.728Z,78.9
2019-05-19T16:59:45.058Z,79
2019-05-19T17:00:58.853Z,79.6
2019-05-19T17:02:14.607Z,80.1
2019-05-19T17:03:28.386Z,80.1
2019-05-19T17:04:42.172Z,80.5
2019-05-19T17:05:55.915Z,80.8
2019-05-19T17:07:09.687Z,80.8
2019-05-19T17:08:23.565Z,81.1
2019-05-19T17:09:37.230Z,81.3
2019-05-19T17:10:51.001Z,81.3
2019-05-19T17:12:07.067Z,82.4
2019-05-19T17:13:18.577Z,82.7
2019-05-19T17:14:32.299Z,82.9
2019-05-19T17:15:46.092Z,83
2019-05-19T17:16:59.839Z,83
2019-05-19T17:18:13.599Z,83
2019-05-19T17:19:27.454Z,83.2
2019-05-19T17:20:41.141Z,83.3
2019-05-19T17:21:54.959Z,83.9
2019-05-19T17:23:08.668Z,84.4
2019-05-19T17:24:22.443Z,84.7
2019-05-19T17:25:36.218Z,84.4
2019-05-19T17:26:49.958Z,84.8
2019-05-19T17:28:03.713Z,85
2019-05-19T17:29:17.469Z,85.5
2019-05-19T17:30:31.258Z,85.7
2019-05-19T17:31:45.045Z,86.1
2019-05-19T17:32:58.778Z,86.5
2019-05-19T17:34:12.518Z,86.8
2019-05-19T17:35:26.270Z,86.3
2019-05-19T17:36:40.211Z,87.5
2019-05-19T17:37:53.785Z,87.6
2019-05-19T17:39:07.628Z,88.2
2019-05-19T17:40:21.300Z,88
2019-05-19T17:41:35.071Z,88.3
2019-05-19T17:42:48.840Z,88.2
2019-05-19T17:44:02.551Z,89.5
2019-05-19T17:45:16.310Z,89.7
2019-05-19T17:46:30.079Z,89.9
2019-05-19T17:47:41.823Z,90
2019-05-19T17:48:55.600Z,90.2
2019-05-19T17:50:07.395Z,90.2
2019-05-19T17:51:21.185Z,90.3
2019-05-19T17:52:32.832Z,90.2
2019-05-19T17:53:46.578Z,90.5
2019-05-19T17:54:58.422Z,90.5
2019-05-19T17:56:10.131Z,90.8
2019-05-19T17:57:21.943Z,90.7
2019-05-19T17:58:33.587Z,90.8
2019-05-19T17:59:45.335Z,91.1
2019-05-19T18:00:57.097Z,91.3
2019-05-19T18:02:08.847Z,91.4
2019-05-19T18:03:20.573Z,91.4
2019-05-19T18:04:32.330Z,91.6
2019-05-19T18:05:44.098Z,91.5
2019-05-19T18:06:55.842Z,91.7
2019-05-19T18:08:07.674Z,91.9
2019-05-19T18:09:19.319Z,92
2019-05-19T18:10:31.077Z,92.2
2019-05-19T18:11:42.815Z,92.2
2019-05-19T18:12:54.555Z,92.4
2019-05-19T18:14:06.326Z,92.4
2019-05-19T18:15:18.048Z,92.4
2019-05-19T18:16:29.848Z,92.5
2019-05-19T18:17:41.635Z,92.5
2019-05-19T18:18:53.288Z,92.5
2019-05-19T18:20:05.027Z,92.7
2019-05-19T18:21:16.833Z,92.5
2019-05-19T18:22:28.635Z,92.9
2019-05-19T18:23:41.400Z,93.2
2019-05-19T18:26:07.533Z,93.6
2019-05-19T18:27:16.430Z,93.6
2019-05-19T18:28:28.085Z,93.8
2019-05-19T18:29:39.859Z,93.7
2019-05-19T18:30:51.648Z,93.8
2019-05-19T18:32:03.319Z,94.1
2019-05-19T18:33:15.036Z,94
2019-05-19T18:34:26.852Z,94.1
2019-05-19T18:35:38.507Z,94.1
2019-05-19T18:36:50.269Z,93.8
2019-05-19T18:38:01.960Z,93.7
2019-05-19T18:39:13.699Z,93.6
2019-05-19T18:40:25.443Z,93.5
2019-05-19T18:41:37.183Z,93.3
2019-05-19T18:42:48.886Z,93.4
2019-05-19T18:44:00.681Z,93.3
2019-05-19T18:45:12.343Z,93
2019-05-19T18:46:24.143Z,92.8
2019-05-19T18:47:35.810Z,92.7
2019-05-19T18:48:47.526Z,92.6
2019-05-19T18:49:59.251Z,92.7
2019-05-19T18:51:10.995Z,92
2019-05-19T18:52:22.847Z,91.9
2019-05-19T18:53:34.455Z,92.1
2019-05-19T18:54:46.315Z,91.9
2019-05-19T18:55:57.922Z,91.6
2019-05-19T18:57:09.624Z,91.4
2019-05-19T18:58:21.323Z,90.8
2019-05-19T18:59:47.779Z,91
2019-05-19T19:00:45.100Z,91.2
2019-05-19T19:01:56.490Z,91.2
2019-05-19T19:03:08.256Z,90.8
2019-05-19T19:04:19.976Z,90.9
2019-05-19T19:05:31.665Z,90.7
2019-05-19T19:06:43.497Z,90.2
2019-05-19T19:07:55.123Z,90.3
2019-05-19T19:09:06.927Z,90.2
2019-05-19T19:10:18.670Z,90.1
2019-05-19T19:11:30.297Z,90.1
2019-05-19T19:12:41.999Z,90.2
2019-05-19T19:13:53.699Z,90
2019-05-19T19:15:05.429Z,89.4
2019-05-19T19:16:17.174Z,89.6
2019-05-19T19:17:28.859Z,89.5
2019-05-19T19:18:40.578Z,89.7
2019-05-19T19:19:52.347Z,89.5
2019-05-19T19:21:04.017Z,89.5
2019-05-19T19:22:15.816Z,89.5
2019-05-19T19:23:27.439Z,89.6
2019-05-19T19:24:39.237Z,89.4
2019-05-19T19:25:50.868Z,89.3
2019-05-19T19:27:02.587Z,89.1
2019-05-19T19:28:14.303Z,89.5
2019-05-19T19:29:26.011Z,89.5
2019-05-19T19:30:37.759Z,89.4
2019-05-19T19:31:49.452Z,89.7
2019-05-19T19:33:01.171Z,89.7
2019-05-19T19:34:12.881Z,89.8
2019-05-19T19:35:24.659Z,89.8
2019-05-19T19:37:48.008Z,90.1
2019-05-19T19:38:59.725Z,90.3
2019-05-19T19:40:11.476Z,90.3
2019-05-19T19:41:23.218Z,90.4
2019-05-19T19:42:34.888Z,90.6
2019-05-19T19:43:46.577Z,90.6
2019-05-19T19:44:58.312Z,90.9
2019-05-19T19:46:10.030Z,90.9
2019-05-19T19:47:21.751Z,91
2019-05-19T19:48:33.410Z,91
2019-05-19T19:49:45.115Z,91
2019-05-19T19:50:56.850Z,91.1
2019-05-19T19:52:08.544Z,91.2
2019-05-19T19:53:20.246Z,91.4
2019-05-19T19:54:31.966Z,91.7
2019-05-19T19:55:43.661Z,91.9
2019-05-19T19:56:55.545Z,92.1
2019-05-19T19:58:07.080Z,92.1
2019-05-19T19:59:18.768Z,92.3
2019-05-19T20:00:30.475Z,92.6
2019-05-19T20:01:42.195Z,92.6
2019-05-19T20:02:53.885Z,92.7
2019-05-19T20:04:05.597Z,92.8
2019-05-19T20:05:17.342Z,93
2019-05-19T20:06:29.127Z,93.1
2019-05-19T20:07:40.686Z,93.1
2019-05-19T20:08:52.384Z,93.2
2019-05-19T20:10:04.090Z,93.1
2019-05-19T20:11:15.801Z,93.2
2019-05-19T20:12:27.605Z,93.3
2019-05-19T20:13:39.177Z,93.5
2019-05-19T20:14:50.898Z,93.6
2019-05-19T20:16:02.566Z,93.7
2019-05-19T20:17:14.273Z,93.8
2019-05-19T20:18:25.961Z,94
2019-05-19T20:19:37.714Z,94.2
2019-05-19T20:20:49.361Z,94.2
2019-05-19T20:22:01.067Z,94.3
2019-05-19T20:23:12.727Z,94.4
2019-05-19T20:24:24.509Z,94.5
2019-05-19T20:25:37.640Z,94.5
2019-05-19T20:26:45.812Z,94.4
2019-05-19T20:27:57.504Z,94.8
2019-05-19T20:29:07.201Z,94.6
2019-05-19T20:30:35.939Z,94.9
2019-05-19T20:31:31.614Z,94.9
2019-05-19T20:32:38.243Z,95.2
2019-05-19T20:33:47.950Z,95.4
2019-05-19T20:34:57.617Z,95.4
2019-05-19T20:36:07.297Z,95.6
2019-05-19T20:37:17.037Z,95.7
2019-05-19T20:39:36.361Z,95.7
2019-05-19T20:40:46.139Z,95.8
2019-05-19T20:41:55.742Z,96
2019-05-19T20:43:05.406Z,96
2019-05-19T20:44:15.093Z,96.1
2019-05-19T20:45:24.929Z,96.2
2019-05-19T20:46:34.456Z,96.1
2019-05-19T20:47:44.207Z,96.1
2019-05-19T20:48:53.795Z,96.1
2019-05-19T20:50:03.709Z,96
2019-05-19T20:51:13.160Z,96
2019-05-19T20:52:22.978Z,96.2
2019-05-19T20:53:32.553Z,96.2
2019-05-19T20:54:42.202Z,96.2
2019-05-19T20:55:51.880Z,96.3
2019-05-19T20:57:01.556Z,96.4
2019-05-19T20:58:11.268Z,96.4
2019-05-19T20:59:20.924Z,96.4
2019-05-19T21:00:30.586Z,96.5
2019-05-19T21:01:40.373Z,96.3
2019-05-19T21:02:50.014Z,96.6
2019-05-19T21:03:59.649Z,96.7
2019-05-19T21:05:09.288Z,97.1
2019-05-19T21:06:18.969Z,97.4
2019-05-19T21:07:28.671Z,97.6
2019-05-19T21:08:38.325Z,97.7
2019-05-19T21:09:47.979Z,97.8
2019-05-19T21:10:57.670Z,98
2019-05-19T21:12:07.351Z,99.2
2019-05-19T21:13:17.004Z,99.6
2019-05-19T21:14:26.682Z,99.9
2019-05-19T21:15:36.359Z,99.9
2019-05-19T21:16:46.038Z,99.9
2019-05-19T21:17:55.761Z,99.9
2019-05-19T21:19:05.344Z,99.9
2019-05-19T21:20:15.139Z,99.9
2019-05-19T21:21:24.687Z,99.9
2019-05-19T21:22:34.380Z,99.9
2019-05-19T21:23:43.999Z,99.9
2019-05-19T21:24:53.723Z,99.9
2019-05-19T21:26:03.329Z,99.9
2019-05-19T21:27:12.997Z,99.9
2019-05-19T21:28:22.729Z,99.9
2019-05-19T21:29:32.333Z,99.9
2019-05-19T21:30:41.980Z,99.9
2019-05-19T21:31:51.710Z,99.9
2019-05-19T21:33:01.286Z,99.9
2019-05-19T21:34:10.939Z,99.9
2019-05-19T21:35:20.618Z,99.9
2019-05-19T21:36:30.319Z,99.9
2019-05-19T22:49:13.959Z,99.9
2019-05-19T22:50:31.561Z,99.9
2019-05-19T22:51:51.201Z,99.9
2019-05-19T22:53:10.883Z,99.9
2019-05-19T22:54:28.519Z,99.9
2019-05-19T22:55:47.262Z,99.9
2019-05-19T22:57:02.905Z,99.9
2019-05-19T22:58:18.571Z,99.9
2019-05-19T22:59:32.161Z,99.9
2019-05-19T23:00:45.819Z,99.9
2019-05-19T23:01:59.447Z,99.9
2019-05-19T23:03:13.092Z,99.9
2019-05-19T23:04:24.657Z,99.9
2019-05-19T23:05:36.282Z,99.9
2019-05-19T23:06:47.898Z,99.9
2019-05-19T23:07:59.507Z,99.9
2019-05-19T23:09:11.133Z,99.9
2019-05-19T23:10:22.815Z,99.9
2019-05-19T23:11:34.357Z,99.9
2019-05-19T23:12:45.981Z,99.9
2019-05-19T23:13:57.592Z,99.9
2019-05-19T23:15:09.197Z,99.9
2019-05-19T23:16:20.831Z,99.9
2019-05-19T23:17:32.411Z,99.9
2019-05-19T23:18:44.050Z,99.9